sensor_id;sensor_type;location;lat;lon;timestamp;P1;durP1;ratioP1;P2;durP2;ratioP2
34489;SDS011;20730;49.372;7.324;2024-01-15T00:01:30;59.70;;;19.02;;
34489;SDS011;20730;49.372;7.324;2024-01-15T00:03:57;48.47;;;15.90;;
34489;SDS011;20730;49.372;7.324;2024-01-15T00:06:23;58.10;;;17.00;;
34489;SDS011;20730;49.372;7.324;2024-01-15T00:08:50;51.10;;;16.73;;
34489;SDS011;20730;49.372;7.324;2024-01-15T00:11:16;57.97;;;18.13;;
34489;SDS011;20730;49.372;7.324;2024-01-15T00:13:43;50.72;;;15.55;;
34489;SDS011;20730;49.372;7.324;2024-01-15T00:16:09;48.15;;;15.48;;
34489;SDS011;20730;49.372;7.324;2024-01-15T00:18:36;62.25;;;18.58;;
34489;SDS011;20730;49.372;7.324;2024-01-15T00:21:03;51.63;;;16.05;;
34489;SDS011;20730;49.372;7.324;2024-01-15T00:23:30;50.05;;;18.33;;
34489;SDS011;20730;49.372;7.324;2024-01-15T00:25:56;56.47;;;14.98;;
34489;SDS011;20730;49.372;7.324;2024-01-15T00:28:23;51.88;;;15.90;;
34489;SDS011;20730;49.372;7.324;2024-01-15T00:30:49;51.78;;;16.00;;
34489;SDS011;20730;49.372;7.324;2024-01-15T00:33:16;55.28;;;17.45;;
34489;SDS011;20730;49.372;7.324;2024-01-15T00:35:43;50.60;;;15.80;;
34489;SDS011;20730;49.372;7.324;2024-01-15T00:38:09;45.67;;;14.60;;
34489;SDS011;20730;49.372;7.324;2024-01-15T00:40:36;48.97;;;15.75;;
34489;SDS011;20730;49.372;7.324;2024-01-15T00:43:03;62.08;;;19.35;;
34489;SDS011;20730;49.372;7.324;2024-01-15T00:45:30;50.72;;;17.42;;
34489;SDS011;20730;49.372;7.324;2024-01-15T00:47:57;64.40;;;21.38;;
34489;SDS011;20730;49.372;7.324;2024-01-15T00:50:26;65.20;;;17.90;;
34489;SDS011;20730;49.372;7.324;2024-01-15T00:52:52;58.72;;;19.23;;
34489;SDS011;20730;49.372;7.324;2024-01-15T00:55:19;73.75;;;23.60;;
34489;SDS011;20730;49.372;7.324;2024-01-15T00:57:45;62.05;;;19.73;;
34489;SDS011;20730;49.372;7.324;2024-01-15T01:00:12;60.70;;;20.02;;
34489;SDS011;20730;49.372;7.324;2024-01-15T01:02:38;67.38;;;17.65;;
34489;SDS011;20730;49.372;7.324;2024-01-15T01:05:05;70.63;;;21.45;;
34489;SDS011;20730;49.372;7.324;2024-01-15T01:07:32;57.85;;;18.17;;
34489;SDS011;20730;49.372;7.324;2024-01-15T01:09:58;73.13;;;20.73;;
34489;SDS011;20730;49.372;7.324;2024-01-15T01:12:25;85.32;;;25.67;;
34489;SDS011;20730;49.372;7.324;2024-01-15T01:14:51;64.05;;;17.73;;
34489;SDS011;20730;49.372;7.324;2024-01-15T01:17:18;72.82;;;20.45;;
34489;SDS011;20730;49.372;7.324;2024-01-15T01:19:44;72.57;;;17.85;;
34489;SDS011;20730;49.372;7.324;2024-01-15T01:22:11;65.80;;;19.90;;
34489;SDS011;20730;49.372;7.324;2024-01-15T01:24:37;61.45;;;16.92;;
34489;SDS011;20730;49.372;7.324;2024-01-15T01:27:04;67.90;;;21.13;;
34489;SDS011;20730;49.372;7.324;2024-01-15T01:29:31;71.30;;;22.73;;
34489;SDS011;20730;49.372;7.324;2024-01-15T01:31:57;77.82;;;23.30;;
34489;SDS011;20730;49.372;7.324;2024-01-15T01:34:24;66.95;;;19.83;;
34489;SDS011;20730;49.372;7.324;2024-01-15T01:36:51;83.97;;;24.20;;
34489;SDS011;20730;49.372;7.324;2024-01-15T01:39:17;61.72;;;20.10;;
34489;SDS011;20730;49.372;7.324;2024-01-15T01:41:44;57.78;;;17.50;;
34489;SDS011;20730;49.372;7.324;2024-01-15T01:44:10;69.97;;;20.95;;
34489;SDS011;20730;49.372;7.324;2024-01-15T01:46:37;61.47;;;17.25;;
34489;SDS011;20730;49.372;7.324;2024-01-15T01:49:10;65.15;;;19.10;;
34489;SDS011;20730;49.372;7.324;2024-01-15T01:51:36;68.97;;;19.25;;
34489;SDS011;20730;49.372;7.324;2024-01-15T01:54:05;62.95;;;16.73;;
34489;SDS011;20730;49.372;7.324;2024-01-15T01:56:34;73.00;;;20.08;;
34489;SDS011;20730;49.372;7.324;2024-01-15T01:59:01;73.05;;;20.15;;
34489;SDS011;20730;49.372;7.324;2024-01-15T02:01:29;78.03;;;21.13;;
34489;SDS011;20730;49.372;7.324;2024-01-15T02:03:56;73.68;;;20.75;;
34489;SDS011;20730;49.372;7.324;2024-01-15T02:06:23;66.13;;;19.83;;
34489;SDS011;20730;49.372;7.324;2024-01-15T02:08:50;60.03;;;17.75;;
34489;SDS011;20730;49.372;7.324;2024-01-15T02:11:17;74.15;;;23.30;;
34489;SDS011;20730;49.372;7.324;2024-01-15T02:13:43;48.10;;;12.90;;
34489;SDS011;20730;49.372;7.324;2024-01-15T02:16:10;59.28;;;16.85;;
34489;SDS011;20730;49.372;7.324;2024-01-15T02:18:40;65.22;;;19.42;;
34489;SDS011;20730;49.372;7.324;2024-01-15T02:21:07;55.70;;;17.23;;
34489;SDS011;20730;49.372;7.324;2024-01-15T02:23:33;61.85;;;18.13;;
34489;SDS011;20730;49.372;7.324;2024-01-15T02:26:00;60.88;;;17.67;;
34489;SDS011;20730;49.372;7.324;2024-01-15T02:28:27;74.55;;;20.27;;
34489;SDS011;20730;49.372;7.324;2024-01-15T02:30:54;58.65;;;18.75;;
34489;SDS011;20730;49.372;7.324;2024-01-15T02:33:21;74.82;;;19.77;;
34489;SDS011;20730;49.372;7.324;2024-01-15T02:35:47;59.40;;;16.52;;
34489;SDS011;20730;49.372;7.324;2024-01-15T02:38:16;56.90;;;16.15;;
34489;SDS011;20730;49.372;7.324;2024-01-15T02:40:43;69.57;;;18.15;;
34489;SDS011;20730;49.372;7.324;2024-01-15T02:43:10;59.30;;;18.83;;
34489;SDS011;20730;49.372;7.324;2024-01-15T02:45:37;61.47;;;17.52;;
34489;SDS011;20730;49.372;7.324;2024-01-15T02:48:03;82.53;;;21.30;;
34489;SDS011;20730;49.372;7.324;2024-01-15T02:50:30;58.00;;;16.95;;
34489;SDS011;20730;49.372;7.324;2024-01-15T02:52:57;60.13;;;18.88;;
34489;SDS011;20730;49.372;7.324;2024-01-15T02:55:23;60.47;;;16.50;;
34489;SDS011;20730;49.372;7.324;2024-01-15T02:57:50;61.65;;;19.25;;
34489;SDS011;20730;49.372;7.324;2024-01-15T03:00:16;63.78;;;18.70;;
34489;SDS011;20730;49.372;7.324;2024-01-15T03:02:44;73.80;;;21.60;;
34489;SDS011;20730;49.372;7.324;2024-01-15T03:05:14;60.80;;;18.58;;
34489;SDS011;20730;49.372;7.324;2024-01-15T03:07:41;48.88;;;15.88;;
34489;SDS011;20730;49.372;7.324;2024-01-15T03:10:07;60.25;;;17.20;;
34489;SDS011;20730;49.372;7.324;2024-01-15T03:12:34;60.80;;;17.10;;
34489;SDS011;20730;49.372;7.324;2024-01-15T03:15:01;51.40;;;15.68;;
34489;SDS011;20730;49.372;7.324;2024-01-15T03:17:27;49.95;;;14.40;;
34489;SDS011;20730;49.372;7.324;2024-01-15T03:19:54;43.20;;;13.40;;
34489;SDS011;20730;49.372;7.324;2024-01-15T03:22:21;55.65;;;18.33;;
34489;SDS011;20730;49.372;7.324;2024-01-15T03:24:47;40.78;;;13.50;;
34489;SDS011;20730;49.372;7.324;2024-01-15T03:27:14;45.95;;;16.05;;
34489;SDS011;20730;49.372;7.324;2024-01-15T03:29:41;47.05;;;14.57;;
34489;SDS011;20730;49.372;7.324;2024-01-15T03:32:07;47.00;;;15.77;;
34489;SDS011;20730;49.372;7.324;2024-01-15T03:34:34;49.90;;;16.83;;
34489;SDS011;20730;49.372;7.324;2024-01-15T03:37:01;42.70;;;14.13;;
34489;SDS011;20730;49.372;7.324;2024-01-15T03:39:27;40.78;;;14.00;;
34489;SDS011;20730;49.372;7.324;2024-01-15T03:41:54;40.88;;;14.90;;
34489;SDS011;20730;49.372;7.324;2024-01-15T03:44:20;40.03;;;13.65;;
34489;SDS011;20730;49.372;7.324;2024-01-15T03:46:47;43.10;;;14.05;;
34489;SDS011;20730;49.372;7.324;2024-01-15T03:49:13;43.50;;;14.27;;
34489;SDS011;20730;49.372;7.324;2024-01-15T03:51:40;40.17;;;13.85;;
34489;SDS011;20730;49.372;7.324;2024-01-15T03:54:07;45.25;;;15.30;;
34489;SDS011;20730;49.372;7.324;2024-01-15T03:56:33;51.55;;;15.98;;
34489;SDS011;20730;49.372;7.324;2024-01-15T03:59:00;46.40;;;16.42;;
34489;SDS011;20730;49.372;7.324;2024-01-15T04:01:26;48.55;;;16.38;;
34489;SDS011;20730;49.372;7.324;2024-01-15T04:03:53;49.97;;;16.05;;
34489;SDS011;20730;49.372;7.324;2024-01-15T04:06:20;43.40;;;14.55;;
34489;SDS011;20730;49.372;7.324;2024-01-15T04:08:46;52.28;;;15.40;;
34489;SDS011;20730;49.372;7.324;2024-01-15T04:11:13;50.75;;;18.02;;
34489;SDS011;20730;49.372;7.324;2024-01-15T04:13:39;49.42;;;16.75;;
34489;SDS011;20730;49.372;7.324;2024-01-15T04:16:08;61.95;;;17.80;;
34489;SDS011;20730;49.372;7.324;2024-01-15T04:18:34;55.35;;;17.95;;
34489;SDS011;20730;49.372;7.324;2024-01-15T04:21:03;50.90;;;16.90;;
34489;SDS011;20730;49.372;7.324;2024-01-15T04:23:29;49.45;;;17.65;;
34489;SDS011;20730;49.372;7.324;2024-01-15T04:25:56;54.78;;;17.50;;
34489;SDS011;20730;49.372;7.324;2024-01-15T04:28:23;57.50;;;18.95;;
34489;SDS011;20730;49.372;7.324;2024-01-15T04:30:49;50.40;;;18.38;;
34489;SDS011;20730;49.372;7.324;2024-01-15T04:33:16;65.57;;;24.58;;
34489;SDS011;20730;49.372;7.324;2024-01-15T04:35:43;57.22;;;19.20;;
34489;SDS011;20730;49.372;7.324;2024-01-15T04:38:09;68.75;;;21.55;;
34489;SDS011;20730;49.372;7.324;2024-01-15T04:40:36;61.17;;;19.40;;
34489;SDS011;20730;49.372;7.324;2024-01-15T04:43:02;60.05;;;18.98;;
34489;SDS011;20730;49.372;7.324;2024-01-15T04:45:29;56.33;;;18.60;;
34489;SDS011;20730;49.372;7.324;2024-01-15T04:47:56;61.20;;;19.73;;
34489;SDS011;20730;49.372;7.324;2024-01-15T04:50:24;68.43;;;25.25;;
34489;SDS011;20730;49.372;7.324;2024-01-15T04:52:50;64.07;;;18.98;;
34489;SDS011;20730;49.372;7.324;2024-01-15T04:55:17;62.60;;;19.02;;
34489;SDS011;20730;49.372;7.324;2024-01-15T04:57:43;56.78;;;17.25;;
34489;SDS011;20730;49.372;7.324;2024-01-15T05:00:10;65.82;;;20.05;;
34489;SDS011;20730;49.372;7.324;2024-01-15T05:02:38;62.72;;;19.73;;
34489;SDS011;20730;49.372;7.324;2024-01-15T05:05:05;65.93;;;20.15;;
34489;SDS011;20730;49.372;7.324;2024-01-15T05:07:31;63.70;;;20.67;;
34489;SDS011;20730;49.372;7.324;2024-01-15T05:09:58;68.53;;;20.42;;
34489;SDS011;20730;49.372;7.324;2024-01-15T05:12:25;55.42;;;17.77;;
34489;SDS011;20730;49.372;7.324;2024-01-15T05:14:51;60.42;;;20.33;;
34489;SDS011;20730;49.372;7.324;2024-01-15T05:17:18;58.53;;;19.75;;
34489;SDS011;20730;49.372;7.324;2024-01-15T05:19:44;55.45;;;18.08;;
34489;SDS011;20730;49.372;7.324;2024-01-15T05:22:11;56.78;;;16.65;;
34489;SDS011;20730;49.372;7.324;2024-01-15T05:24:37;62.13;;;19.65;;
34489;SDS011;20730;49.372;7.324;2024-01-15T05:27:04;66.63;;;19.60;;
34489;SDS011;20730;49.372;7.324;2024-01-15T05:29:30;61.00;;;18.92;;
34489;SDS011;20730;49.372;7.324;2024-01-15T05:31:57;62.70;;;19.88;;
34489;SDS011;20730;49.372;7.324;2024-01-15T05:34:27;59.78;;;19.88;;
34489;SDS011;20730;49.372;7.324;2024-01-15T05:36:54;59.03;;;16.80;;
34489;SDS011;20730;49.372;7.324;2024-01-15T05:39:21;70.88;;;21.08;;
34489;SDS011;20730;49.372;7.324;2024-01-15T05:41:49;68.72;;;21.33;;
34489;SDS011;20730;49.372;7.324;2024-01-15T05:44:16;66.90;;;19.45;;
34489;SDS011;20730;49.372;7.324;2024-01-15T05:46:42;63.42;;;19.83;;
34489;SDS011;20730;49.372;7.324;2024-01-15T05:49:09;62.90;;;20.67;;
34489;SDS011;20730;49.372;7.324;2024-01-15T05:51:36;54.65;;;17.65;;
34489;SDS011;20730;49.372;7.324;2024-01-15T05:54:03;68.53;;;20.15;;
34489;SDS011;20730;49.372;7.324;2024-01-15T05:56:29;70.53;;;21.27;;
34489;SDS011;20730;49.372;7.324;2024-01-15T05:58:56;59.97;;;20.65;;
34489;SDS011;20730;49.372;7.324;2024-01-15T06:01:22;67.90;;;19.90;;
34489;SDS011;20730;49.372;7.324;2024-01-15T06:03:49;56.30;;;18.58;;
34489;SDS011;20730;49.372;7.324;2024-01-15T06:06:16;45.75;;;16.60;;
34489;SDS011;20730;49.372;7.324;2024-01-15T06:08:42;49.25;;;19.00;;
34489;SDS011;20730;49.372;7.324;2024-01-15T06:11:09;40.95;;;16.60;;
34489;SDS011;20730;49.372;7.324;2024-01-15T06:13:35;53.08;;;19.23;;
34489;SDS011;20730;49.372;7.324;2024-01-15T06:16:02;59.53;;;19.88;;
34489;SDS011;20730;49.372;7.324;2024-01-15T06:18:31;54.97;;;19.10;;
34489;SDS011;20730;49.372;7.324;2024-01-15T06:20:58;62.38;;;20.17;;
34489;SDS011;20730;49.372;7.324;2024-01-15T06:23:24;53.40;;;17.88;;
34489;SDS011;20730;49.372;7.324;2024-01-15T06:25:51;53.47;;;19.30;;
34489;SDS011;20730;49.372;7.324;2024-01-15T06:28:17;48.33;;;18.70;;
34489;SDS011;20730;49.372;7.324;2024-01-15T06:30:44;55.22;;;21.40;;
34489;SDS011;20730;49.372;7.324;2024-01-15T06:33:10;56.45;;;20.95;;
34489;SDS011;20730;49.372;7.324;2024-01-15T06:35:37;48.75;;;19.70;;
34489;SDS011;20730;49.372;7.324;2024-01-15T06:38:03;56.90;;;20.55;;
34489;SDS011;20730;49.372;7.324;2024-01-15T06:40:30;58.10;;;20.13;;
34489;SDS011;20730;49.372;7.324;2024-01-15T06:42:56;52.50;;;18.67;;
34489;SDS011;20730;49.372;7.324;2024-01-15T06:45:23;58.35;;;20.10;;
34489;SDS011;20730;49.372;7.324;2024-01-15T06:47:49;50.58;;;19.50;;
34489;SDS011;20730;49.372;7.324;2024-01-15T06:50:16;42.90;;;15.80;;
34489;SDS011;20730;49.372;7.324;2024-01-15T06:52:42;53.13;;;19.15;;
34489;SDS011;20730;49.372;7.324;2024-01-15T06:55:09;49.30;;;19.33;;
34489;SDS011;20730;49.372;7.324;2024-01-15T06:57:35;51.75;;;18.75;;
34489;SDS011;20730;49.372;7.324;2024-01-15T07:00:02;50.70;;;18.70;;
34489;SDS011;20730;49.372;7.324;2024-01-15T07:02:33;46.05;;;19.63;;
34489;SDS011;20730;49.372;7.324;2024-01-15T07:05:00;52.78;;;19.95;;
34489;SDS011;20730;49.372;7.324;2024-01-15T07:07:27;47.30;;;17.58;;
34489;SDS011;20730;49.372;7.324;2024-01-15T07:09:56;46.60;;;18.58;;
34489;SDS011;20730;49.372;7.324;2024-01-15T07:12:22;50.17;;;18.55;;
34489;SDS011;20730;49.372;7.324;2024-01-15T07:14:49;51.53;;;18.63;;
34489;SDS011;20730;49.372;7.324;2024-01-15T07:17:16;52.58;;;18.60;;
34489;SDS011;20730;49.372;7.324;2024-01-15T07:19:42;51.38;;;18.77;;
34489;SDS011;20730;49.372;7.324;2024-01-15T07:22:09;44.10;;;18.38;;
34489;SDS011;20730;49.372;7.324;2024-01-15T07:24:36;53.83;;;20.80;;
34489;SDS011;20730;49.372;7.324;2024-01-15T07:27:03;48.55;;;21.00;;
34489;SDS011;20730;49.372;7.324;2024-01-15T07:29:31;47.28;;;18.25;;
34489;SDS011;20730;49.372;7.324;2024-01-15T07:31:59;42.15;;;17.38;;
34489;SDS011;20730;49.372;7.324;2024-01-15T07:34:26;48.55;;;19.05;;
34489;SDS011;20730;49.372;7.324;2024-01-15T07:36:52;46.50;;;17.83;;
34489;SDS011;20730;49.372;7.324;2024-01-15T07:39:19;49.53;;;18.45;;
34489;SDS011;20730;49.372;7.324;2024-01-15T07:41:46;46.92;;;19.90;;
34489;SDS011;20730;49.372;7.324;2024-01-15T07:44:12;47.50;;;19.95;;
34489;SDS011;20730;49.372;7.324;2024-01-15T07:46:39;48.30;;;20.13;;
34489;SDS011;20730;49.372;7.324;2024-01-15T07:49:06;47.35;;;18.05;;
34489;SDS011;20730;49.372;7.324;2024-01-15T07:51:33;49.22;;;19.90;;
34489;SDS011;20730;49.372;7.324;2024-01-15T07:53:59;52.20;;;20.48;;
34489;SDS011;20730;49.372;7.324;2024-01-15T07:56:26;50.28;;;20.17;;
34489;SDS011;20730;49.372;7.324;2024-01-15T07:58:54;49.40;;;20.23;;
34489;SDS011;20730;49.372;7.324;2024-01-15T08:01:20;50.45;;;18.90;;
34489;SDS011;20730;49.372;7.324;2024-01-15T08:03:47;47.60;;;19.48;;
34489;SDS011;20730;49.372;7.324;2024-01-15T08:06:14;50.63;;;21.23;;
34489;SDS011;20730;49.372;7.324;2024-01-15T08:08:41;52.17;;;19.83;;
34489;SDS011;20730;49.372;7.324;2024-01-15T08:11:08;47.75;;;17.85;;
34489;SDS011;20730;49.372;7.324;2024-01-15T08:13:34;51.42;;;20.73;;
34489;SDS011;20730;49.372;7.324;2024-01-15T08:16:01;49.28;;;19.88;;
34489;SDS011;20730;49.372;7.324;2024-01-15T08:18:28;49.25;;;19.08;;
34489;SDS011;20730;49.372;7.324;2024-01-15T08:20:57;53.10;;;18.92;;
34489;SDS011;20730;49.372;7.324;2024-01-15T08:23:24;49.97;;;18.10;;
34489;SDS011;20730;49.372;7.324;2024-01-15T08:25:51;55.65;;;18.90;;
34489;SDS011;20730;49.372;7.324;2024-01-15T08:28:17;45.22;;;18.33;;
34489;SDS011;20730;49.372;7.324;2024-01-15T08:30:44;43.97;;;18.48;;
34489;SDS011;20730;49.372;7.324;2024-01-15T08:33:10;45.45;;;18.65;;
34489;SDS011;20730;49.372;7.324;2024-01-15T08:35:47;42.22;;;17.75;;
34489;SDS011;20730;49.372;7.324;2024-01-15T08:38:14;41.35;;;17.08;;
34489;SDS011;20730;49.372;7.324;2024-01-15T08:40:40;42.92;;;17.20;;
34489;SDS011;20730;49.372;7.324;2024-01-15T08:43:07;39.10;;;14.60;;
34489;SDS011;20730;49.372;7.324;2024-01-15T08:45:33;35.83;;;14.82;;
34489;SDS011;20730;49.372;7.324;2024-01-15T08:48:00;40.72;;;15.85;;
34489;SDS011;20730;49.372;7.324;2024-01-15T08:50:29;37.42;;;15.55;;
34489;SDS011;20730;49.372;7.324;2024-01-15T08:52:55;39.08;;;16.35;;
34489;SDS011;20730;49.372;7.324;2024-01-15T08:55:22;35.05;;;15.27;;
34489;SDS011;20730;49.372;7.324;2024-01-15T08:57:49;38.45;;;15.55;;
34489;SDS011;20730;49.372;7.324;2024-01-15T09:00:16;38.22;;;16.33;;
34489;SDS011;20730;49.372;7.324;2024-01-15T09:02:43;37.67;;;16.10;;
34489;SDS011;20730;49.372;7.324;2024-01-15T09:05:10;35.08;;;14.77;;
34489;SDS011;20730;49.372;7.324;2024-01-15T09:07:36;36.22;;;16.17;;
34489;SDS011;20730;49.372;7.324;2024-01-15T09:10:03;34.75;;;14.38;;
34489;SDS011;20730;49.372;7.324;2024-01-15T09:12:30;41.28;;;15.90;;
34489;SDS011;20730;49.372;7.324;2024-01-15T09:14:56;31.58;;;15.32;;
34489;SDS011;20730;49.372;7.324;2024-01-15T09:17:23;35.88;;;14.50;;
34489;SDS011;20730;49.372;7.324;2024-01-15T09:19:50;31.52;;;14.15;;
34489;SDS011;20730;49.372;7.324;2024-01-15T09:22:16;35.65;;;15.07;;
34489;SDS011;20730;49.372;7.324;2024-01-15T09:24:45;33.35;;;14.52;;
34489;SDS011;20730;49.372;7.324;2024-01-15T09:27:11;33.55;;;14.77;;
34489;SDS011;20730;49.372;7.324;2024-01-15T09:29:38;30.50;;;13.90;;
34489;SDS011;20730;49.372;7.324;2024-01-15T09:32:06;35.50;;;15.45;;
34489;SDS011;20730;49.372;7.324;2024-01-15T09:34:33;30.88;;;14.30;;
34489;SDS011;20730;49.372;7.324;2024-01-15T09:37:00;32.33;;;15.18;;
34489;SDS011;20730;49.372;7.324;2024-01-15T09:39:27;37.58;;;15.23;;
34489;SDS011;20730;49.372;7.324;2024-01-15T09:41:54;33.75;;;13.70;;
34489;SDS011;20730;49.372;7.324;2024-01-15T09:44:20;30.92;;;14.40;;
34489;SDS011;20730;49.372;7.324;2024-01-15T09:46:47;28.50;;;13.75;;
34489;SDS011;20730;49.372;7.324;2024-01-15T09:49:16;32.22;;;14.05;;
34489;SDS011;20730;49.372;7.324;2024-01-15T09:51:44;31.73;;;13.77;;
34489;SDS011;20730;49.372;7.324;2024-01-15T09:54:14;33.72;;;14.82;;
34489;SDS011;20730;49.372;7.324;2024-01-15T09:56:45;35.42;;;15.75;;
34489;SDS011;20730;49.372;7.324;2024-01-15T09:59:18;30.80;;;15.25;;
34489;SDS011;20730;49.372;7.324;2024-01-15T10:01:44;33.85;;;15.20;;
34489;SDS011;20730;49.372;7.324;2024-01-15T10:04:11;33.85;;;15.15;;
34489;SDS011;20730;49.372;7.324;2024-01-15T10:06:44;34.38;;;14.43;;
34489;SDS011;20730;49.372;7.324;2024-01-15T10:09:12;35.05;;;15.35;;
34489;SDS011;20730;49.372;7.324;2024-01-15T10:11:41;32.42;;;14.00;;
34489;SDS011;20730;49.372;7.324;2024-01-15T10:14:08;31.55;;;13.55;;
34489;SDS011;20730;49.372;7.324;2024-01-15T10:16:35;35.45;;;16.23;;
34489;SDS011;20730;49.372;7.324;2024-01-15T10:19:03;29.27;;;14.18;;
34489;SDS011;20730;49.372;7.324;2024-01-15T10:21:31;33.67;;;14.98;;
34489;SDS011;20730;49.372;7.324;2024-01-15T10:23:58;33.33;;;13.48;;
34489;SDS011;20730;49.372;7.324;2024-01-15T10:26:26;27.58;;;14.45;;
34489;SDS011;20730;49.372;7.324;2024-01-15T10:28:52;31.50;;;13.48;;
34489;SDS011;20730;49.372;7.324;2024-01-15T10:31:19;31.83;;;14.98;;
34489;SDS011;20730;49.372;7.324;2024-01-15T10:33:46;32.55;;;15.35;;
34489;SDS011;20730;49.372;7.324;2024-01-15T10:36:12;32.20;;;15.57;;
34489;SDS011;20730;49.372;7.324;2024-01-15T10:38:39;31.35;;;12.52;;
34489;SDS011;20730;49.372;7.324;2024-01-15T10:41:06;35.30;;;15.15;;
34489;SDS011;20730;49.372;7.324;2024-01-15T10:43:32;31.77;;;14.77;;
34489;SDS011;20730;49.372;7.324;2024-01-15T10:46:00;28.40;;;14.60;;
34489;SDS011;20730;49.372;7.324;2024-01-15T10:48:27;32.50;;;13.20;;
34489;SDS011;20730;49.372;7.324;2024-01-15T10:50:54;29.05;;;12.20;;
34489;SDS011;20730;49.372;7.324;2024-01-15T10:53:22;24.38;;;11.15;;
34489;SDS011;20730;49.372;7.324;2024-01-15T10:55:49;24.27;;;11.68;;
34489;SDS011;20730;49.372;7.324;2024-01-15T10:58:17;18.80;;;8.68;;
34489;SDS011;20730;49.372;7.324;2024-01-15T11:00:44;22.58;;;10.95;;
34489;SDS011;20730;49.372;7.324;2024-01-15T11:03:11;22.67;;;12.07;;
34489;SDS011;20730;49.372;7.324;2024-01-15T11:05:42;23.80;;;12.05;;
34489;SDS011;20730;49.372;7.324;2024-01-15T11:08:09;20.60;;;10.55;;
34489;SDS011;20730;49.372;7.324;2024-01-15T11:13:13;21.23;;;10.48;;
34489;SDS011;20730;49.372;7.324;2024-01-15T11:15:59;23.85;;;12.20;;
34489;SDS011;20730;49.372;7.324;2024-01-15T11:18:27;20.42;;;11.23;;
34489;SDS011;20730;49.372;7.324;2024-01-15T11:23:45;20.25;;;10.52;;
34489;SDS011;20730;49.372;7.324;2024-01-15T11:28:55;23.13;;;12.13;;
34489;SDS011;20730;49.372;7.324;2024-01-15T11:31:26;22.65;;;11.18;;
34489;SDS011;20730;49.372;7.324;2024-01-15T11:33:53;18.95;;;9.35;;
34489;SDS011;20730;49.372;7.324;2024-01-15T11:36:47;21.35;;;11.63;;
34489;SDS011;20730;49.372;7.324;2024-01-15T11:41:59;24.65;;;11.20;;
34489;SDS011;20730;49.372;7.324;2024-01-15T11:44:26;21.60;;;10.00;;
34489;SDS011;20730;49.372;7.324;2024-01-15T11:46:59;21.02;;;11.23;;
34489;SDS011;20730;49.372;7.324;2024-01-15T11:52:05;26.85;;;12.55;;
34489;SDS011;20730;49.372;7.324;2024-01-15T11:54:33;22.02;;;11.13;;
34489;SDS011;20730;49.372;7.324;2024-01-15T11:57:04;25.58;;;11.35;;
34489;SDS011;20730;49.372;7.324;2024-01-15T11:59:34;21.95;;;11.98;;
34489;SDS011;20730;49.372;7.324;2024-01-15T12:02:01;23.42;;;12.13;;
34489;SDS011;20730;49.372;7.324;2024-01-15T12:04:28;22.35;;;10.82;;
34489;SDS011;20730;49.372;7.324;2024-01-15T12:06:55;22.17;;;11.13;;
34489;SDS011;20730;49.372;7.324;2024-01-15T12:09:21;20.55;;;10.07;;
34489;SDS011;20730;49.372;7.324;2024-01-15T12:11:51;19.70;;;10.95;;
34489;SDS011;20730;49.372;7.324;2024-01-15T12:14:21;21.85;;;11.30;;
34489;SDS011;20730;49.372;7.324;2024-01-15T12:16:47;24.08;;;11.20;;
34489;SDS011;20730;49.372;7.324;2024-01-15T12:19:15;21.65;;;11.40;;
34489;SDS011;20730;49.372;7.324;2024-01-15T12:21:41;20.08;;;10.85;;
34489;SDS011;20730;49.372;7.324;2024-01-15T12:24:08;20.63;;;11.20;;
34489;SDS011;20730;49.372;7.324;2024-01-15T12:26:34;21.88;;;11.55;;
34489;SDS011;20730;49.372;7.324;2024-01-15T12:29:01;21.90;;;11.70;;
34489;SDS011;20730;49.372;7.324;2024-01-15T12:31:29;24.90;;;11.85;;
34489;SDS011;20730;49.372;7.324;2024-01-15T12:33:56;20.00;;;10.95;;
34489;SDS011;20730;49.372;7.324;2024-01-15T12:36:22;23.15;;;12.02;;
34489;SDS011;20730;49.372;7.324;2024-01-15T12:38:49;22.33;;;11.68;;
34489;SDS011;20730;49.372;7.324;2024-01-15T12:41:16;20.15;;;10.88;;
34489;SDS011;20730;49.372;7.324;2024-01-15T12:43:42;20.40;;;10.27;;
34489;SDS011;20730;49.372;7.324;2024-01-15T12:46:09;23.25;;;11.23;;
34489;SDS011;20730;49.372;7.324;2024-01-15T12:48:35;17.63;;;9.82;;
34489;SDS011;20730;49.372;7.324;2024-01-15T12:51:05;19.90;;;11.07;;
34489;SDS011;20730;49.372;7.324;2024-01-15T12:53:32;19.55;;;9.73;;
34489;SDS011;20730;49.372;7.324;2024-01-15T12:55:58;19.75;;;10.00;;
34489;SDS011;20730;49.372;7.324;2024-01-15T12:58:25;15.93;;;8.38;;
34489;SDS011;20730;49.372;7.324;2024-01-15T13:00:51;19.10;;;10.10;;
34489;SDS011;20730;49.372;7.324;2024-01-15T13:03:18;15.10;;;8.75;;
34489;SDS011;20730;49.372;7.324;2024-01-15T13:05:45;16.80;;;9.00;;
34489;SDS011;20730;49.372;7.324;2024-01-15T13:08:12;15.38;;;8.13;;
34489;SDS011;20730;49.372;7.324;2024-01-15T13:10:38;15.55;;;9.32;;
34489;SDS011;20730;49.372;7.324;2024-01-15T13:13:05;12.80;;;8.18;;
34489;SDS011;20730;49.372;7.324;2024-01-15T13:15:32;15.20;;;8.68;;
34489;SDS011;20730;49.372;7.324;2024-01-15T13:17:58;15.32;;;8.60;;
34489;SDS011;20730;49.372;7.324;2024-01-15T13:20:25;14.52;;;8.68;;
34489;SDS011;20730;49.372;7.324;2024-01-15T13:22:51;13.70;;;8.50;;
34489;SDS011;20730;49.372;7.324;2024-01-15T13:25:18;16.42;;;8.55;;
34489;SDS011;20730;49.372;7.324;2024-01-15T13:27:44;16.23;;;7.38;;
34489;SDS011;20730;49.372;7.324;2024-01-15T13:30:11;18.48;;;7.85;;
34489;SDS011;20730;49.372;7.324;2024-01-15T13:32:39;18.05;;;9.25;;
34489;SDS011;20730;49.372;7.324;2024-01-15T13:35:05;15.85;;;8.10;;
34489;SDS011;20730;49.372;7.324;2024-01-15T13:40:04;12.00;;;6.55;;
34489;SDS011;20730;49.372;7.324;2024-01-15T13:42:30;11.98;;;6.25;;
34489;SDS011;20730;49.372;7.324;2024-01-15T13:44:57;12.52;;;6.75;;
34489;SDS011;20730;49.372;7.324;2024-01-15T13:47:24;13.35;;;6.70;;
34489;SDS011;20730;49.372;7.324;2024-01-15T13:49:50;11.38;;;6.22;;
34489;SDS011;20730;49.372;7.324;2024-01-15T13:52:17;11.75;;;6.25;;
34489;SDS011;20730;49.372;7.324;2024-01-15T13:54:44;11.73;;;6.35;;
34489;SDS011;20730;49.372;7.324;2024-01-15T13:57:16;13.70;;;7.18;;
34489;SDS011;20730;49.372;7.324;2024-01-15T13:59:43;12.32;;;6.60;;
34489;SDS011;20730;49.372;7.324;2024-01-15T14:02:10;12.80;;;6.88;;
34489;SDS011;20730;49.372;7.324;2024-01-15T14:04:37;13.35;;;6.78;;
34489;SDS011;20730;49.372;7.324;2024-01-15T14:07:04;11.30;;;6.20;;
34489;SDS011;20730;49.372;7.324;2024-01-15T14:09:31;12.73;;;6.72;;
34489;SDS011;20730;49.372;7.324;2024-01-15T14:11:58;13.90;;;7.43;;
34489;SDS011;20730;49.372;7.324;2024-01-15T14:14:25;13.52;;;7.20;;
34489;SDS011;20730;49.372;7.324;2024-01-15T14:16:52;12.82;;;6.60;;
34489;SDS011;20730;49.372;7.324;2024-01-15T14:19:18;14.18;;;6.60;;
34489;SDS011;20730;49.372;7.324;2024-01-15T14:21:45;12.93;;;6.57;;
34489;SDS011;20730;49.372;7.324;2024-01-15T14:24:12;14.05;;;7.05;;
34489;SDS011;20730;49.372;7.324;2024-01-15T14:26:38;12.70;;;6.68;;
34489;SDS011;20730;49.372;7.324;2024-01-15T14:29:05;12.55;;;6.10;;
34489;SDS011;20730;49.372;7.324;2024-01-15T14:31:32;13.63;;;6.72;;
34489;SDS011;20730;49.372;7.324;2024-01-15T14:34:01;13.18;;;6.50;;
34489;SDS011;20730;49.372;7.324;2024-01-15T14:36:29;14.10;;;7.00;;
34489;SDS011;20730;49.372;7.324;2024-01-15T14:38:56;14.85;;;7.10;;